sensor_id;sensor_type;location;lat;lon;timestamp;P1;durP1;ratioP1;P2;durP2;ratioP2
81170;SDS011;70644;44.818;20.478;2024-01-30T00:02:15;15.50;;;13.88;;
81170;SDS011;70644;44.818;20.478;2024-01-30T00:04:41;16.52;;;14.00;;
81170;SDS011;70644;44.818;20.478;2024-01-30T00:07:07;16.77;;;13.57;;
81170;SDS011;70644;44.818;20.478;2024-01-30T00:09:33;16.05;;;14.35;;
81170;SDS011;70644;44.818;20.478;2024-01-30T00:11:59;15.65;;;13.95;;
81170;SDS011;70644;44.818;20.478;2024-01-30T00:14:26;15.02;;;13.40;;
81170;SDS011;70644;44.818;20.478;2024-01-30T00:16:52;14.32;;;12.82;;
81170;SDS011;70644;44.818;20.478;2024-01-30T00:19:18;15.70;;;13.60;;
81170;SDS011;70644;44.818;20.478;2024-01-30T00:21:44;15.68;;;13.85;;
81170;SDS011;70644;44.818;20.478;2024-01-30T00:24:10;16.40;;;13.35;;
81170;SDS011;70644;44.818;20.478;2024-01-30T00:26:36;15.00;;;13.40;;
81170;SDS011;70644;44.818;20.478;2024-01-30T00:29:02;14.75;;;13.25;;
81170;SDS011;70644;44.818;20.478;2024-01-30T00:31:28;15.43;;;12.98;;
81170;SDS011;70644;44.818;20.478;2024-01-30T00:33:54;14.90;;;13.30;;
81170;SDS011;70644;44.818;20.478;2024-01-30T00:36:20;15.15;;;13.23;;
81170;SDS011;70644;44.818;20.478;2024-01-30T00:38:47;15.82;;;13.43;;
81170;SDS011;70644;44.818;20.478;2024-01-30T00:41:13;14.73;;;13.07;;
81170;SDS011;70644;44.818;20.478;2024-01-30T00:43:39;14.20;;;12.63;;
81170;SDS011;70644;44.818;20.478;2024-01-30T00:46:05;15.00;;;13.10;;
81170;SDS011;70644;44.818;20.478;2024-01-30T00:48:31;14.88;;;12.55;;
81170;SDS011;70644;44.818;20.478;2024-01-30T00:50:57;14.73;;;13.13;;
81170;SDS011;70644;44.818;20.478;2024-01-30T00:53:23;14.65;;;12.95;;
81170;SDS011;70644;44.818;20.478;2024-01-30T00:55:49;14.15;;;12.60;;
81170;SDS011;70644;44.818;20.478;2024-01-30T00:58:15;14.25;;;12.85;;
81170;SDS011;70644;44.818;20.478;2024-01-30T01:00:44;15.60;;;12.77;;
81170;SDS011;70644;44.818;20.478;2024-01-30T01:03:10;14.07;;;12.57;;
81170;SDS011;70644;44.818;20.478;2024-01-30T01:05:36;14.43;;;12.68;;
81170;SDS011;70644;44.818;20.478;2024-01-30T01:08:02;15.20;;;13.02;;
81170;SDS011;70644;44.818;20.478;2024-01-30T01:10:28;15.82;;;12.38;;
81170;SDS011;70644;44.818;20.478;2024-01-30T01:12:54;14.50;;;12.55;;
81170;SDS011;70644;44.818;20.478;2024-01-30T01:15:20;15.10;;;13.10;;
81170;SDS011;70644;44.818;20.478;2024-01-30T01:17:46;13.60;;;12.18;;
81170;SDS011;70644;44.818;20.478;2024-01-30T01:20:14;14.35;;;12.65;;
81170;SDS011;70644;44.818;20.478;2024-01-30T01:22:40;14.48;;;12.65;;
81170;SDS011;70644;44.818;20.478;2024-01-30T01:25:06;15.98;;;13.07;;
81170;SDS011;70644;44.818;20.478;2024-01-30T01:27:33;14.43;;;12.88;;
81170;SDS011;70644;44.818;20.478;2024-01-30T01:30:03;12.75;;;11.45;;
81170;SDS011;70644;44.818;20.478;2024-01-30T01:32:30;13.68;;;12.10;;
81170;SDS011;70644;44.818;20.478;2024-01-30T01:34:57;14.15;;;12.63;;
81170;SDS011;70644;44.818;20.478;2024-01-30T01:37:23;13.93;;;12.05;;
81170;SDS011;70644;44.818;20.478;2024-01-30T01:39:51;14.35;;;12.32;;
81170;SDS011;70644;44.818;20.478;2024-01-30T01:42:17;15.18;;;12.15;;
81170;SDS011;70644;44.818;20.478;2024-01-30T01:44:43;14.88;;;12.68;;
81170;SDS011;70644;44.818;20.478;2024-01-30T01:47:09;13.63;;;12.18;;
81170;SDS011;70644;44.818;20.478;2024-01-30T01:49:36;14.20;;;12.07;;
81170;SDS011;70644;44.818;20.478;2024-01-30T01:52:02;13.32;;;11.93;;
81170;SDS011;70644;44.818;20.478;2024-01-30T01:54:28;14.00;;;12.27;;
81170;SDS011;70644;44.818;20.478;2024-01-30T01:56:55;14.73;;;12.23;;
81170;SDS011;70644;44.818;20.478;2024-01-30T01:59:22;13.93;;;11.88;;
81170;SDS011;70644;44.818;20.478;2024-01-30T02:01:49;13.93;;;12.43;;
81170;SDS011;70644;44.818;20.478;2024-01-30T02:04:16;14.13;;;12.35;;
81170;SDS011;70644;44.818;20.478;2024-01-30T02:06:42;13.82;;;12.13;;
81170;SDS011;70644;44.818;20.478;2024-01-30T02:09:09;14.65;;;12.18;;
81170;SDS011;70644;44.818;20.478;2024-01-30T02:11:36;14.30;;;11.88;;
81170;SDS011;70644;44.818;20.478;2024-01-30T02:14:05;13.73;;;12.07;;
81170;SDS011;70644;44.818;20.478;2024-01-30T02:16:31;14.13;;;12.20;;
81170;SDS011;70644;44.818;20.478;2024-01-30T02:18:58;13.80;;;12.25;;
81170;SDS011;70644;44.818;20.478;2024-01-30T02:21:24;13.70;;;11.65;;
81170;SDS011;70644;44.818;20.478;2024-01-30T02:23:50;14.90;;;12.23;;
81170;SDS011;70644;44.818;20.478;2024-01-30T02:26:16;12.48;;;11.00;;
81170;SDS011;70644;44.818;20.478;2024-01-30T02:28:42;14.07;;;11.93;;
81170;SDS011;70644;44.818;20.478;2024-01-30T02:31:08;13.18;;;11.77;;
81170;SDS011;70644;44.818;20.478;2024-01-30T02:33:34;13.93;;;11.65;;
81170;SDS011;70644;44.818;20.478;2024-01-30T02:36:00;13.13;;;11.50;;
81170;SDS011;70644;44.818;20.478;2024-01-30T02:38:27;12.63;;;11.38;;
81170;SDS011;70644;44.818;20.478;2024-01-30T02:40:53;13.13;;;10.90;;
81170;SDS011;70644;44.818;20.478;2024-01-30T02:43:20;13.02;;;11.23;;
81170;SDS011;70644;44.818;20.478;2024-01-30T02:45:46;14.05;;;11.35;;
81170;SDS011;70644;44.818;20.478;2024-01-30T02:48:12;12.43;;;11.05;;
81170;SDS011;70644;44.818;20.478;2024-01-30T02:50:38;12.63;;;11.23;;
81170;SDS011;70644;44.818;20.478;2024-01-30T02:53:04;12.75;;;11.32;;
81170;SDS011;70644;44.818;20.478;2024-01-30T02:55:30;13.38;;;11.32;;
81170;SDS011;70644;44.818;20.478;2024-01-30T02:57:56;12.10;;;10.18;;
81170;SDS011;70644;44.818;20.478;2024-01-30T03:00:23;11.98;;;10.65;;
81170;SDS011;70644;44.818;20.478;2024-01-30T03:02:49;12.82;;;10.93;;
81170;SDS011;70644;44.818;20.478;2024-01-30T03:05:15;13.55;;;11.00;;
81170;SDS011;70644;44.818;20.478;2024-01-30T03:07:41;11.90;;;10.20;;
81170;SDS011;70644;44.818;20.478;2024-01-30T03:10:07;12.40;;;10.45;;
81170;SDS011;70644;44.818;20.478;2024-01-30T03:12:33;11.25;;;10.10;;
81170;SDS011;70644;44.818;20.478;2024-01-30T03:15:00;11.55;;;10.35;;
81170;SDS011;70644;44.818;20.478;2024-01-30T03:17:26;12.02;;;10.82;;
81170;SDS011;70644;44.818;20.478;2024-01-30T03:19:52;12.43;;;10.93;;
81170;SDS011;70644;44.818;20.478;2024-01-30T03:22:18;11.80;;;10.32;;
81170;SDS011;70644;44.818;20.478;2024-01-30T03:24:44;12.35;;;11.05;;
81170;SDS011;70644;44.818;20.478;2024-01-30T03:27:10;11.95;;;10.23;;
81170;SDS011;70644;44.818;20.478;2024-01-30T03:29:37;11.40;;;9.40;;
81170;SDS011;70644;44.818;20.478;2024-01-30T03:32:03;11.35;;;10.15;;
81170;SDS011;70644;44.818;20.478;2024-01-30T03:34:30;11.65;;;10.43;;
81170;SDS011;70644;44.818;20.478;2024-01-30T03:36:56;11.45;;;10.25;;
81170;SDS011;70644;44.818;20.478;2024-01-30T03:39:22;11.38;;;10.07;;
81170;SDS011;70644;44.818;20.478;2024-01-30T03:41:48;11.02;;;9.50;;
81170;SDS011;70644;44.818;20.478;2024-01-30T03:44:14;11.02;;;9.43;;
81170;SDS011;70644;44.818;20.478;2024-01-30T03:46:40;12.38;;;10.10;;
81170;SDS011;70644;44.818;20.478;2024-01-30T03:49:06;10.85;;;9.55;;
81170;SDS011;70644;44.818;20.478;2024-01-30T03:51:32;10.60;;;9.20;;
81170;SDS011;70644;44.818;20.478;2024-01-30T03:53:58;11.25;;;9.88;;
81170;SDS011;70644;44.818;20.478;2024-01-30T03:56:24;10.52;;;9.43;;
81170;SDS011;70644;44.818;20.478;2024-01-30T03:58:51;10.98;;;9.77;;
81170;SDS011;70644;44.818;20.478;2024-01-30T04:01:18;11.48;;;10.27;;
81170;SDS011;70644;44.818;20.478;2024-01-30T04:03:44;11.25;;;9.70;;
81170;SDS011;70644;44.818;20.478;2024-01-30T04:06:10;11.13;;;9.93;;
81170;SDS011;70644;44.818;20.478;2024-01-30T04:08:37;11.50;;;9.68;;
81170;SDS011;70644;44.818;20.478;2024-01-30T04:11:06;10.57;;;8.95;;
81170;SDS011;70644;44.818;20.478;2024-01-30T04:13:32;10.50;;;9.40;;
81170;SDS011;70644;44.818;20.478;2024-01-30T04:15:59;9.98;;;8.90;;
81170;SDS011;70644;44.818;20.478;2024-01-30T04:18:28;10.60;;;8.93;;
81170;SDS011;70644;44.818;20.478;2024-01-30T04:20:55;11.27;;;9.48;;
81170;SDS011;70644;44.818;20.478;2024-01-30T04:23:21;10.90;;;9.38;;
81170;SDS011;70644;44.818;20.478;2024-01-30T04:25:47;10.65;;;9.45;;
81170;SDS011;70644;44.818;20.478;2024-01-30T04:28:13;10.13;;;9.07;;
81170;SDS011;70644;44.818;20.478;2024-01-30T04:30:39;11.40;;;9.73;;
81170;SDS011;70644;44.818;20.478;2024-01-30T04:33:05;10.73;;;9.63;;
81170;SDS011;70644;44.818;20.478;2024-01-30T04:35:31;10.63;;;9.13;;
81170;SDS011;70644;44.818;20.478;2024-01-30T04:37:57;10.52;;;8.75;;
81170;SDS011;70644;44.818;20.478;2024-01-30T04:40:23;10.77;;;9.32;;
81170;SDS011;70644;44.818;20.478;2024-01-30T04:42:49;10.43;;;9.32;;
81170;SDS011;70644;44.818;20.478;2024-01-30T04:45:15;10.45;;;8.98;;
81170;SDS011;70644;44.818;20.478;2024-01-30T04:47:41;10.55;;;9.45;;
81170;SDS011;70644;44.818;20.478;2024-01-30T04:50:08;10.05;;;8.63;;
81170;SDS011;70644;44.818;20.478;2024-01-30T04:52:34;9.77;;;8.77;;
81170;SDS011;70644;44.818;20.478;2024-01-30T04:55:00;10.65;;;9.55;;
81170;SDS011;70644;44.818;20.478;2024-01-30T04:57:27;9.75;;;8.75;;
81170;SDS011;70644;44.818;20.478;2024-01-30T04:59:53;9.95;;;8.80;;
81170;SDS011;70644;44.818;20.478;2024-01-30T05:02:19;9.52;;;8.48;;
81170;SDS011;70644;44.818;20.478;2024-01-30T05:04:45;9.82;;;8.52;;
81170;SDS011;70644;44.818;20.478;2024-01-30T05:07:11;10.50;;;9.27;;
81170;SDS011;70644;44.818;20.478;2024-01-30T05:09:37;10.18;;;9.07;;
81170;SDS011;70644;44.818;20.478;2024-01-30T05:12:03;9.98;;;8.77;;
81170;SDS011;70644;44.818;20.478;2024-01-30T05:14:29;8.88;;;7.97;;
81170;SDS011;70644;44.818;20.478;2024-01-30T05:16:55;9.05;;;8.13;;
81170;SDS011;70644;44.818;20.478;2024-01-30T05:19:21;9.88;;;8.88;;
81170;SDS011;70644;44.818;20.478;2024-01-30T05:21:48;8.82;;;7.97;;
81170;SDS011;70644;44.818;20.478;2024-01-30T05:24:14;10.18;;;8.90;;
81170;SDS011;70644;44.818;20.478;2024-01-30T05:26:40;9.63;;;8.57;;
81170;SDS011;70644;44.818;20.478;2024-01-30T05:29:06;10.10;;;8.60;;
81170;SDS011;70644;44.818;20.478;2024-01-30T05:31:33;9.63;;;8.50;;
81170;SDS011;70644;44.818;20.478;2024-01-30T05:33:59;9.02;;;8.13;;
81170;SDS011;70644;44.818;20.478;2024-01-30T05:36:25;10.10;;;8.40;;
81170;SDS011;70644;44.818;20.478;2024-01-30T05:38:51;9.40;;;8.40;;
81170;SDS011;70644;44.818;20.478;2024-01-30T05:41:17;9.57;;;8.02;;
81170;SDS011;70644;44.818;20.478;2024-01-30T05:43:43;9.63;;;8.63;;
81170;SDS011;70644;44.818;20.478;2024-01-30T05:46:10;9.10;;;8.20;;
81170;SDS011;70644;44.818;20.478;2024-01-30T05:48:37;9.20;;;8.20;;
81170;SDS011;70644;44.818;20.478;2024-01-30T05:51:03;8.90;;;7.90;;
81170;SDS011;70644;44.818;20.478;2024-01-30T05:53:29;8.85;;;7.95;;
81170;SDS011;70644;44.818;20.478;2024-01-30T05:55:55;9.63;;;8.00;;
81170;SDS011;70644;44.818;20.478;2024-01-30T05:58:21;9.20;;;8.13;;
81170;SDS011;70644;44.818;20.478;2024-01-30T06:00:47;9.50;;;8.50;;
81170;SDS011;70644;44.818;20.478;2024-01-30T06:03:13;9.05;;;7.90;;
81170;SDS011;70644;44.818;20.478;2024-01-30T06:05:39;8.73;;;7.82;;
81170;SDS011;70644;44.818;20.478;2024-01-30T06:08:05;9.50;;;7.75;;
81170;SDS011;70644;44.818;20.478;2024-01-30T06:10:31;10.05;;;8.35;;
81170;SDS011;70644;44.818;20.478;2024-01-30T06:12:57;8.88;;;7.80;;
81170;SDS011;70644;44.818;20.478;2024-01-30T06:15:23;9.13;;;8.07;;
81170;SDS011;70644;44.818;20.478;2024-01-30T06:17:49;8.90;;;8.00;;
81170;SDS011;70644;44.818;20.478;2024-01-30T06:20:15;8.57;;;7.68;;
81170;SDS011;70644;44.818;20.478;2024-01-30T06:22:41;8.77;;;7.88;;
81170;SDS011;70644;44.818;20.478;2024-01-30T06:25:08;9.60;;;8.27;;
81170;SDS011;70644;44.818;20.478;2024-01-30T06:27:34;8.63;;;7.72;;
81170;SDS011;70644;44.818;20.478;2024-01-30T06:30:00;8.82;;;7.93;;
81170;SDS011;70644;44.818;20.478;2024-01-30T06:32:26;9.52;;;8.48;;
81170;SDS011;70644;44.818;20.478;2024-01-30T06:34:53;8.50;;;7.60;;
81170;SDS011;70644;44.818;20.478;2024-01-30T06:37:19;8.50;;;7.60;;
81170;SDS011;70644;44.818;20.478;2024-01-30T06:39:46;8.85;;;7.95;;
81170;SDS011;70644;44.818;20.478;2024-01-30T06:42:12;8.32;;;7.45;;
81170;SDS011;70644;44.818;20.478;2024-01-30T06:44:39;8.65;;;7.63;;
81170;SDS011;70644;44.818;20.478;2024-01-30T06:47:05;8.20;;;7.20;;
81170;SDS011;70644;44.818;20.478;2024-01-30T06:49:31;9.00;;;7.82;;
81170;SDS011;70644;44.818;20.478;2024-01-30T06:51:57;8.68;;;7.57;;
81170;SDS011;70644;44.818;20.478;2024-01-30T06:54:24;9.85;;;8.30;;
81170;SDS011;70644;44.818;20.478;2024-01-30T06:56:50;8.82;;;7.93;;
81170;SDS011;70644;44.818;20.478;2024-01-30T06:59:16;8.35;;;7.13;;
81170;SDS011;70644;44.818;20.478;2024-01-30T07:01:42;7.88;;;7.07;;
81170;SDS011;70644;44.818;20.478;2024-01-30T07:04:08;8.95;;;7.43;;
81170;SDS011;70644;44.818;20.478;2024-01-30T07:06:34;10.63;;;7.25;;
81170;SDS011;70644;44.818;20.478;2024-01-30T07:09:00;9.60;;;7.18;;
81170;SDS011;70644;44.818;20.478;2024-01-30T07:11:26;9.27;;;6.88;;
81170;SDS011;70644;44.818;20.478;2024-01-30T07:13:54;10.38;;;8.07;;
81170;SDS011;70644;44.818;20.478;2024-01-30T07:16:20;9.55;;;6.53;;
81170;SDS011;70644;44.818;20.478;2024-01-30T07:18:47;7.90;;;6.78;;
81170;SDS011;70644;44.818;20.478;2024-01-30T07:21:14;9.00;;;7.40;;
81170;SDS011;70644;44.818;20.478;2024-01-30T07:23:40;8.30;;;6.95;;
81170;SDS011;70644;44.818;20.478;2024-01-30T07:26:07;9.80;;;7.18;;
81170;SDS011;70644;44.818;20.478;2024-01-30T07:28:33;7.70;;;6.97;;
81170;SDS011;70644;44.818;20.478;2024-01-30T07:31:00;7.15;;;6.45;;
81170;SDS011;70644;44.818;20.478;2024-01-30T07:33:26;7.65;;;6.68;;
81170;SDS011;70644;44.818;20.478;2024-01-30T07:35:53;7.70;;;6.53;;
81170;SDS011;70644;44.818;20.478;2024-01-30T07:38:19;8.18;;;6.45;;
81170;SDS011;70644;44.818;20.478;2024-01-30T07:40:45;7.68;;;6.80;;
81170;SDS011;70644;44.818;20.478;2024-01-30T07:43:12;7.88;;;6.70;;
81170;SDS011;70644;44.818;20.478;2024-01-30T07:45:38;7.53;;;6.60;;
81170;SDS011;70644;44.818;20.478;2024-01-30T07:48:05;7.70;;;6.18;;
81170;SDS011;70644;44.818;20.478;2024-01-30T07:50:31;8.63;;;6.75;;
81170;SDS011;70644;44.818;20.478;2024-01-30T07:52:58;7.50;;;6.47;;
81170;SDS011;70644;44.818;20.478;2024-01-30T07:55:25;8.32;;;6.00;;
81170;SDS011;70644;44.818;20.478;2024-01-30T07:57:53;7.53;;;6.68;;
81170;SDS011;70644;44.818;20.478;2024-01-30T08:00:20;7.03;;;6.15;;
81170;SDS011;70644;44.818;20.478;2024-01-30T08:02:51;7.40;;;6.65;;
81170;SDS011;70644;44.818;20.478;2024-01-30T08:05:19;8.73;;;6.72;;
81170;SDS011;70644;44.818;20.478;2024-01-30T08:07:47;6.53;;;5.68;;
81170;SDS011;70644;44.818;20.478;2024-01-30T08:10:14;7.50;;;6.18;;
81170;SDS011;70644;44.818;20.478;2024-01-30T08:12:40;7.95;;;6.63;;
81170;SDS011;70644;44.818;20.478;2024-01-30T08:15:06;6.95;;;6.22;;
81170;SDS011;70644;44.818;20.478;2024-01-30T08:17:33;7.47;;;6.07;;
81170;SDS011;70644;44.818;20.478;2024-01-30T08:19:59;8.02;;;6.32;;
81170;SDS011;70644;44.818;20.478;2024-01-30T08:22:25;6.95;;;6.25;;
81170;SDS011;70644;44.818;20.478;2024-01-30T08:24:51;7.18;;;6.20;;
81170;SDS011;70644;44.818;20.478;2024-01-30T08:27:17;8.05;;;6.35;;
81170;SDS011;70644;44.818;20.478;2024-01-30T08:29:43;8.60;;;6.50;;
81170;SDS011;70644;44.818;20.478;2024-01-30T08:32:09;6.88;;;6.13;;
81170;SDS011;70644;44.818;20.478;2024-01-30T08:34:35;7.60;;;6.15;;
81170;SDS011;70644;44.818;20.478;2024-01-30T08:37:02;7.45;;;5.90;;
81170;SDS011;70644;44.818;20.478;2024-01-30T08:39:28;7.65;;;6.75;;
81170;SDS011;70644;44.818;20.478;2024-01-30T08:41:54;7.57;;;6.22;;
81170;SDS011;70644;44.818;20.478;2024-01-30T08:44:20;8.25;;;6.47;;
81170;SDS011;70644;44.818;20.478;2024-01-30T08:46:46;7.00;;;6.10;;
81170;SDS011;70644;44.818;20.478;2024-01-30T08:49:13;7.47;;;6.18;;
81170;SDS011;70644;44.818;20.478;2024-01-30T08:51:39;7.30;;;6.28;;
81170;SDS011;70644;44.818;20.478;2024-01-30T08:54:05;8.45;;;6.38;;
81170;SDS011;70644;44.818;20.478;2024-01-30T08:56:32;6.80;;;5.88;;
81170;SDS011;70644;44.818;20.478;2024-01-30T08:58:58;7.03;;;6.15;;
81170;SDS011;70644;44.818;20.478;2024-01-30T09:01:27;7.82;;;6.55;;
81170;SDS011;70644;44.818;20.478;2024-01-30T09:03:53;7.63;;;5.53;;
81170;SDS011;70644;44.818;20.478;2024-01-30T09:06:19;6.95;;;6.25;;
81170;SDS011;70644;44.818;20.478;2024-01-30T09:08:45;7.75;;;5.75;;
81170;SDS011;70644;44.818;20.478;2024-01-30T09:11:12;7.13;;;6.43;;
81170;SDS011;70644;44.818;20.478;2024-01-30T09:13:38;8.60;;;7.18;;
81170;SDS011;70644;44.818;20.478;2024-01-30T09:16:05;9.38;;;7.75;;
81170;SDS011;70644;44.818;20.478;2024-01-30T09:18:31;8.57;;;7.30;;
81170;SDS011;70644;44.818;20.478;2024-01-30T09:20:57;9.35;;;7.72;;
81170;SDS011;70644;44.818;20.478;2024-01-30T09:23:23;11.02;;;7.85;;
81170;SDS011;70644;44.818;20.478;2024-01-30T09:25:50;7.63;;;6.82;;
81170;SDS011;70644;44.818;20.478;2024-01-30T09:28:18;8.90;;;6.97;;
81170;SDS011;70644;44.818;20.478;2024-01-30T09:30:44;10.43;;;7.43;;
81170;SDS011;70644;44.818;20.478;2024-01-30T09:33:12;9.43;;;6.90;;
81170;SDS011;70644;44.818;20.478;2024-01-30T09:35:38;8.98;;;6.72;;
81170;SDS011;70644;44.818;20.478;2024-01-30T09:38:04;8.95;;;6.72;;
81170;SDS011;70644;44.818;20.478;2024-01-30T09:40:30;9.77;;;6.90;;
81170;SDS011;70644;44.818;20.478;2024-01-30T09:42:57;8.15;;;6.45;;
81170;SDS011;70644;44.818;20.478;2024-01-30T09:45:25;10.50;;;7.00;;
81170;SDS011;70644;44.818;20.478;2024-01-30T09:47:51;10.50;;;6.57;;
81170;SDS011;70644;44.818;20.478;2024-01-30T09:50:18;7.35;;;6.25;;
81170;SDS011;70644;44.818;20.478;2024-01-30T09:52:44;7.38;;;6.30;;
81170;SDS011;70644;44.818;20.478;2024-01-30T09:55:11;9.77;;;7.13;;
81170;SDS011;70644;44.818;20.478;2024-01-30T09:57:37;9.07;;;6.50;;
81170;SDS011;70644;44.818;20.478;2024-01-30T10:00:03;7.55;;;6.30;;
81170;SDS011;70644;44.818;20.478;2024-01-30T10:02:32;8.38;;;6.45;;
81170;SDS011;70644;44.818;20.478;2024-01-30T10:04:58;8.20;;;6.05;;
81170;SDS011;70644;44.818;20.478;2024-01-30T10:07:25;7.82;;;6.50;;
81170;SDS011;70644;44.818;20.478;2024-01-30T10:09:51;8.90;;;6.50;;
81170;SDS011;70644;44.818;20.478;2024-01-30T10:12:18;8.80;;;6.65;;
81170;SDS011;70644;44.818;20.478;2024-01-30T10:14:45;7.70;;;6.40;;
81170;SDS011;70644;44.818;20.478;2024-01-30T10:17:12;7.18;;;6.00;;
81170;SDS011;70644;44.818;20.478;2024-01-30T10:19:41;8.32;;;6.65;;
81170;SDS011;70644;44.818;20.478;2024-01-30T10:22:07;7.68;;;6.35;;
81170;SDS011;70644;44.818;20.478;2024-01-30T10:24:35;8.25;;;6.15;;
81170;SDS011;70644;44.818;20.478;2024-01-30T10:27:01;7.57;;;5.72;;
81170;SDS011;70644;44.818;20.478;2024-01-30T10:29:27;8.60;;;6.35;;
81170;SDS011;70644;44.818;20.478;2024-01-30T10:32:04;8.13;;;6.28;;
81170;SDS011;70644;44.818;20.478;2024-01-30T10:34:30;7.32;;;5.78;;
81170;SDS011;70644;44.818;20.478;2024-01-30T10:39:22;8.35;;;6.35;;
81170;SDS011;70644;44.818;20.478;2024-01-30T10:41:49;7.88;;;6.28;;
81170;SDS011;70644;44.818;20.478;2024-01-30T10:44:19;7.38;;;5.45;;
81170;SDS011;70644;44.818;20.478;2024-01-30T10:46:50;8.43;;;6.60;;
81170;SDS011;70644;44.818;20.478;2024-01-30T10:49:16;6.55;;;5.53;;
81170;SDS011;70644;44.818;20.478;2024-01-30T10:51:43;7.13;;;5.55;;
81170;SDS011;70644;44.818;20.478;2024-01-30T10:54:09;7.75;;;5.80;;
81170;SDS011;70644;44.818;20.478;2024-01-30T10:56:38;7.55;;;5.82;;
81170;SDS011;70644;44.818;20.478;2024-01-30T10:59:04;7.45;;;5.88;;
81170;SDS011;70644;44.818;20.478;2024-01-30T11:01:30;6.72;;;5.70;;
81170;SDS011;70644;44.818;20.478;2024-01-30T11:03:56;8.02;;;5.55;;
81170;SDS011;70644;44.818;20.478;2024-01-30T11:06:23;7.43;;;5.63;;
81170;SDS011;70644;44.818;20.478;2024-01-30T11:09:04;5.88;;;5.15;;
81170;SDS011;70644;44.818;20.478;2024-01-30T11:14:23;6.68;;;5.22;;
81170;SDS011;70644;44.818;20.478;2024-01-30T11:16:50;6.57;;;5.18;;
81170;SDS011;70644;44.818;20.478;2024-01-30T11:19:22;7.47;;;5.50;;
81170;SDS011;70644;44.818;20.478;2024-01-30T11:21:50;7.78;;;5.55;;
81170;SDS011;70644;44.818;20.478;2024-01-30T11:24:19;6.80;;;5.32;;
81170;SDS011;70644;44.818;20.478;2024-01-30T11:26:47;6.72;;;5.60;;
81170;SDS011;70644;44.818;20.478;2024-01-30T11:29:13;8.95;;;5.10;;
81170;SDS011;70644;44.818;20.478;2024-01-30T11:31:43;7.35;;;5.20;;
81170;SDS011;70644;44.818;20.478;2024-01-30T11:34:17;7.93;;;5.32;;
81170;SDS011;70644;44.818;20.478;2024-01-30T11:36:43;6.53;;;5.65;;
81170;SDS011;70644;44.818;20.478;2024-01-30T11:39:11;8.25;;;6.18;;
81170;SDS011;70644;44.818;20.478;2024-01-30T11:41:37;7.55;;;5.57;;
81170;SDS011;70644;44.818;20.478;2024-01-30T11:44:04;6.95;;;5.50;;
81170;SDS011;70644;44.818;20.478;2024-01-30T11:46:30;7.10;;;6.22;;
81170;SDS011;70644;44.818;20.478;2024-01-30T11:48:56;8.07;;;5.85;;
81170;SDS011;70644;44.818;20.478;2024-01-30T11:51:22;8.07;;;5.82;;
81170;SDS011;70644;44.818;20.478;2024-01-30T11:53:51;9.23;;;5.88;;
81170;SDS011;70644;44.818;20.478;2024-01-30T11:58:44;7.50;;;5.65;;
81170;SDS011;70644;44.818;20.478;2024-01-30T12:01:10;8.02;;;6.00;;
81170;SDS011;70644;44.818;20.478;2024-01-30T12:03:37;8.85;;;6.03;;
81170;SDS011;70644;44.818;20.478;2024-01-30T12:06:03;8.82;;;6.28;;
81170;SDS011;70644;44.818;20.478;2024-01-30T12:08:29;9.93;;;5.90;;
81170;SDS011;70644;44.818;20.478;2024-01-30T12:10:56;7.68;;;6.20;;
81170;SDS011;70644;44.818;20.478;2024-01-30T12:13:23;7.45;;;5.90;;
81170;SDS011;70644;44.818;20.478;2024-01-30T12:15:49;7.78;;;6.63;;
81170;SDS011;70644;44.818;20.478;2024-01-30T12:18:18;8.50;;;6.07;;
81170;SDS011;70644;44.818;20.478;2024-01-30T12:20:45;9.00;;;6.10;;
81170;SDS011;70644;44.818;20.478;2024-01-30T12:23:14;8.23;;;6.13;;
81170;SDS011;70644;44.818;20.478;2024-01-30T12:25:40;8.60;;;6.43;;
81170;SDS011;70644;44.818;20.478;2024-01-30T12:28:06;7.15;;;6.13;;
81170;SDS011;70644;44.818;20.478;2024-01-30T12:30:34;9.00;;;6.47;;
81170;SDS011;70644;44.818;20.478;2024-01-30T12:33:01;8.85;;;5.93;;
81170;SDS011;70644;44.818;20.478;2024-01-30T12:35:29;8.48;;;6.28;;
81170;SDS011;70644;44.818;20.478;2024-01-30T12:37:55;7.57;;;6.40;;
81170;SDS011;70644;44.818;20.478;2024-01-30T12:40:21;8.90;;;6.70;;
81170;SDS011;70644;44.818;20.478;2024-01-30T12:42:49;9.05;;;6.60;;
81170;SDS011;70644;44.818;20.478;2024-01-30T12:45:15;10.00;;;6.85;;
81170;SDS011;70644;44.818;20.478;2024-01-30T12:47:45;9.07;;;6.63;;
81170;SDS011;70644;44.818;20.478;2024-01-30T12:50:11;9.43;;;6.80;;
81170;SDS011;70644;44.818;20.478;2024-01-30T12:52:40;7.78;;;6.10;;
81170;SDS011;70644;44.818;20.478;2024-01-30T12:55:07;9.68;;;7.70;;
81170;SDS011;70644;44.818;20.478;2024-01-30T12:57:33;9.73;;;6.95;;
81170;SDS011;70644;44.818;20.478;2024-01-30T13:00:00;9.32;;;7.35;;
81170;SDS011;70644;44.818;20.478;2024-01-30T13:02:26;9.23;;;6.65;;
81170;SDS011;70644;44.818;20.478;2024-01-30T13:04:59;11.40;;;7.43;;
81170;SDS011;70644;44.818;20.478;2024-01-30T13:07:25;10.15;;;6.88;;
81170;SDS011;70644;44.818;20.478;2024-01-30T13:09:51;8.75;;;6.90;;
81170;SDS011;70644;44.818;20.478;2024-01-30T13:12:17;7.85;;;6.72;;
81170;SDS011;70644;44.818;20.478;2024-01-30T13:14:43;8.27;;;6.35;;
81170;SDS011;70644;44.818;20.478;2024-01-30T13:17:09;10.60;;;6.60;;
81170;SDS011;70644;44.818;20.478;2024-01-30T13:19:36;10.07;;;6.78;;
81170;SDS011;70644;44.818;20.478;2024-01-30T13:22:02;18.20;;;7.55;;
81170;SDS011;70644;44.818;20.478;2024-01-30T13:24:28;14.00;;;6.82;;
81170;SDS011;70644;44.818;20.478;2024-01-30T13:26:54;9.27;;;7.05;;
81170;SDS011;70644;44.818;20.478;2024-01-30T13:29:20;10.10;;;6.50;;
81170;SDS011;70644;44.818;20.478;2024-01-30T13:31:46;11.52;;;6.82;;
81170;SDS011;70644;44.818;20.478;2024-01-30T13:34:12;7.45;;;5.93;;
81170;SDS011;70644;44.818;20.478;2024-01-30T13:36:39;9.55;;;6.72;;
81170;SDS011;70644;44.818;20.478;2024-01-30T13:39:05;12.48;;;7.32;;
81170;SDS011;70644;44.818;20.478;2024-01-30T13:41:34;8.15;;;5.93;;
81170;SDS011;70644;44.818;20.478;2024-01-30T13:44:00;9.25;;;6.45;;
81170;SDS011;70644;44.818;20.478;2024-01-30T13:46:28;9.40;;;5.97;;
81170;SDS011;70644;44.818;20.478;2024-01-30T13:48:54;8.93;;;6.00;;
81170;SDS011;70644;44.818;20.478;2024-01-30T13:51:21;8.48;;;6.18;;
81170;SDS011;70644;44.818;20.478;2024-01-30T13:53:47;8.38;;;6.25;;
81170;SDS011;70644;44.818;20.478;2024-01-30T13:56:15;8.02;;;6.00;;
81170;SDS011;70644;44.818;20.478;2024-01-30T13:58:41;10.02;;;6.10;;
81170;SDS011;70644;44.818;20.478;2024-01-30T14:01:07;8.85;;;6.35;;
81170;SDS011;70644;44.818;20.478;2024-01-30T14:03:35;7.82;;;5.90;;
81170;SDS011;70644;44.818;20.478;2024-01-30T14:06:01;8.35;;;5.80;;
81170;SDS011;70644;44.818;20.478;2024-01-30T14:08:27;8.57;;;5.82;;
81170;SDS011;70644;44.818;20.478;2024-01-30T14:10:53;8.30;;;5.65;;
81170;SDS011;70644;44.818;20.478;2024-01-30T14:13:23;9.55;;;5.68;;
81170;SDS011;70644;44.818;20.478;2024-01-30T14:15:50;7.78;;;5.50;;
81170;SDS011;70644;44.818;20.478;2024-01-30T14:18:16;9.68;;;6.13;;
81170;SDS011;70644;44.818;20.478;2024-01-30T14:20:42;9.20;;;6.07;;
81170;SDS011;70644;44.818;20.478;2024-01-30T14:23:08;7.20;;;5.53;;
81170;SDS011;70644;44.818;20.478;2024-01-30T14:25:34;7.47;;;5.85;;
81170;SDS011;70644;44.818;20.478;2024-01-30T14:28:00;9.60;;;5.90;;
81170;SDS011;70644;44.818;20.478;2024-01-30T14:30:26;9.60;;;5.50;;